createdAt,value
2022-12-25T00:00:50.630Z,100.00
2022-12-25T00:03:17.175Z,100.00
2022-12-25T00:05:43.730Z,100.00
2022-12-25T00:08:10.569Z,100.00
2022-12-25T00:10:43.006Z,100.00
2022-12-25T00:13:11.770Z,100.00
2022-12-25T00:15:40.800Z,100.00
2022-12-25T00:18:07.158Z,100.00
2022-12-25T00:20:33.712Z,100.00
2022-12-25T00:23:00.092Z,100.00
2022-12-25T00:25:26.436Z,100.00
2022-12-25T00:27:53.426Z,100.00
2022-12-25T00:30:19.756Z,100.00
2022-12-25T00:32:46.078Z,100.00
2022-12-25T00:35:12.777Z,100.00
2022-12-25T00:37:39.185Z,100.00
2022-12-25T00:40:06.139Z,100.00
2022-12-25T00:42:32.852Z,100.00
2022-12-25T00:45:01.928Z,100.00
2022-12-25T00:47:29.414Z,100.00
2022-12-25T00:49:55.792Z,100.00
2022-12-25T00:52:22.537Z,100.00
2022-12-25T00:54:48.873Z,100.00
2022-12-25T00:57:15.705Z,100.00
2022-12-25T00:59:42.421Z,100.00
2022-12-25T01:02:29.203Z,100.00
2022-12-25T01:04:57.155Z,100.00
2022-12-25T01:07:26.898Z,100.00
2022-12-25T01:10:11.871Z,100.00
2022-12-25T01:12:41.484Z,100.00
2022-12-25T01:15:09.940Z,100.00
2022-12-25T01:17:36.314Z,100.00
2022-12-25T01:20:03.213Z,100.00
2022-12-25T01:22:29.548Z,100.00
2022-12-25T01:24:55.895Z,100.00
2022-12-25T01:27:22.731Z,100.00
2022-12-25T01:29:49.064Z,100.00
2022-12-25T01:32:15.438Z,100.00
2022-12-25T01:34:42.343Z,100.00
2022-12-25T01:37:08.696Z,100.00
2022-12-25T01:39:35.046Z,100.00
2022-12-25T01:42:01.744Z,100.00
2022-12-25T01:44:37.075Z,100.00
2022-12-25T01:47:05.543Z,100.00
2022-12-25T01:49:35.083Z,100.00
2022-12-25T01:52:25.231Z,100.00
2022-12-25T01:54:53.969Z,100.00
2022-12-25T01:57:25.953Z,100.00
2022-12-25T01:59:54.309Z,100.00
2022-12-25T02:02:22.022Z,100.00
2022-12-25T02:04:55.885Z,100.00
2022-12-25T02:07:25.201Z,100.00
2022-12-25T02:09:52.504Z,100.00
2022-12-25T02:12:21.524Z,100.00
2022-12-25T02:14:50.035Z,100.00
2022-12-25T02:17:19.475Z,100.00
2022-12-25T02:20:16.267Z,100.00
2022-12-25T02:23:15.415Z,100.00
2022-12-25T02:26:29.600Z,100.00
2022-12-25T02:28:59.163Z,100.00
2022-12-25T02:31:37.704Z,100.00
2022-12-25T02:34:15.926Z,100.00
2022-12-25T02:37:25.393Z,100.00
2022-12-25T02:40:02.707Z,100.00
2022-12-25T02:43:25.769Z,100.00
2022-12-25T02:46:30.776Z,100.00
2022-12-25T02:49:19.795Z,100.00
2022-12-25T02:52:10.697Z,100.00
2022-12-25T02:55:01.023Z,100.00
2022-12-25T02:57:50.866Z,100.00
2022-12-25T03:00:36.446Z,100.00
2022-12-25T03:03:25.680Z,100.00
2022-12-25T03:06:16.579Z,100.00
2022-12-25T03:08:46.622Z,100.00
2022-12-25T03:11:31.618Z,100.00
2022-12-25T03:14:21.359Z,100.00
2022-12-25T03:16:55.336Z,100.00
2022-12-25T03:19:43.238Z,100.00
2022-12-25T03:22:33.927Z,100.00
2022-12-25T03:25:19.164Z,100.00
2022-12-25T03:27:46.868Z,100.00
2022-12-25T03:30:31.854Z,100.00
2022-12-25T03:33:44.450Z,100.00
2022-12-25T03:36:25.082Z,100.00
2022-12-25T03:39:39.822Z,100.00
2022-12-25T03:42:26.083Z,100.00
2022-12-25T03:45:34.275Z,100.00
2022-12-25T03:48:13.573Z,100.00
2022-12-25T03:51:13.335Z,100.00
2022-12-25T03:54:03.176Z,100.00
2022-12-25T03:57:03.369Z,100.00
2022-12-25T03:59:48.013Z,100.00
2022-12-25T04:02:33.163Z,100.00
2022-12-25T04:05:18.368Z,100.00
2022-12-25T04:08:03.522Z,100.00
2022-12-25T04:10:48.223Z,100.00
2022-12-25T04:13:34.448Z,100.00
2022-12-25T04:16:19.228Z,100.00
2022-12-25T04:19:04.645Z,100.00
2022-12-25T04:21:49.716Z,100.00
2022-12-25T04:24:34.906Z,100.00
2022-12-25T04:27:19.545Z,100.00
2022-12-25T04:30:04.604Z,100.00
2022-12-25T04:32:49.849Z,100.00
2022-12-25T04:35:35.154Z,100.00
2022-12-25T04:38:01.513Z,100.00
2022-12-25T04:40:27.925Z,100.00
2022-12-25T04:42:54.647Z,100.00
2022-12-25T04:45:21.047Z,100.00
2022-12-25T04:47:47.376Z,100.00
2022-12-25T04:50:14.189Z,100.00
2022-12-25T04:52:41.128Z,100.00
2022-12-25T04:55:09.694Z,100.00
2022-12-25T04:57:36.364Z,100.00
2022-12-25T05:00:03.560Z,100.00
2022-12-25T05:02:30.072Z,100.00
2022-12-25T05:04:56.865Z,100.00
2022-12-25T05:07:23.253Z,100.00
2022-12-25T05:09:49.607Z,100.00
2022-12-25T05:12:16.295Z,100.00
2022-12-25T05:14:42.688Z,100.00
2022-12-25T05:17:09.063Z,100.00
2022-12-25T05:19:35.870Z,100.00
2022-12-25T05:22:02.191Z,100.00
2022-12-25T05:24:28.741Z,100.00
2022-12-25T05:26:55.437Z,100.00
2022-12-25T05:29:21.829Z,100.00
2022-12-25T05:31:48.624Z,100.00
2022-12-25T05:34:15.418Z,100.00
2022-12-25T05:36:41.780Z,100.00
2022-12-25T05:39:08.694Z,100.00
2022-12-25T05:41:35.155Z,100.00
2022-12-25T05:44:01.712Z,100.00
2022-12-25T05:46:28.604Z,100.00
2022-12-25T05:48:55.022Z,100.00
2022-12-25T05:51:21.508Z,100.00
2022-12-25T05:53:48.347Z,100.00
2022-12-25T05:56:14.680Z,100.00
2022-12-25T05:58:41.693Z,100.00
2022-12-25T06:01:17.472Z,100.00
2022-12-25T06:03:43.938Z,100.00
2022-12-25T06:06:11.160Z,100.00
2022-12-25T06:08:38.411Z,100.00
2022-12-25T06:11:06.655Z,100.00
2022-12-25T06:13:34.208Z,100.00
2022-12-25T06:16:07.610Z,100.00
2022-12-25T06:18:44.301Z,100.00
2022-12-25T06:21:13.014Z,100.00
2022-12-25T06:23:40.037Z,100.00
2022-12-25T06:26:09.027Z,100.00
2022-12-25T06:28:35.953Z,100.00
2022-12-25T06:31:15.051Z,100.00
2022-12-25T06:33:42.382Z,100.00
2022-12-25T06:36:21.123Z,100.00
2022-12-25T06:38:48.574Z,100.00
2022-12-25T06:41:20.188Z,100.00
2022-12-25T06:43:51.501Z,100.00
2022-12-25T06:46:19.510Z,100.00
2022-12-25T06:48:50.031Z,100.00
2022-12-25T06:51:19.317Z,100.00
2022-12-25T06:53:46.816Z,100.00
2022-12-25T06:56:15.932Z,100.00
2022-12-25T06:58:48.158Z,100.00
2022-12-25T07:01:25.454Z,100.00
2022-12-25T07:03:55.748Z,100.00
2022-12-25T07:06:22.805Z,100.00
2022-12-25T07:08:49.439Z,100.00
2022-12-25T07:11:16.026Z,100.00
2022-12-25T07:13:42.729Z,100.00
2022-12-25T07:16:11.578Z,100.00
2022-12-25T07:18:39.149Z,100.00
2022-12-25T07:21:16.133Z,100.00
2022-12-25T07:23:46.293Z,100.00
2022-12-25T07:26:13.922Z,100.00
2022-12-25T07:28:40.714Z,100.00
2022-12-25T07:31:11.890Z,100.00
2022-12-25T07:33:38.620Z,100.00
2022-12-25T07:36:06.015Z,100.00
2022-12-25T07:38:32.777Z,100.00
2022-12-25T07:40:59.243Z,100.00
2022-12-25T07:43:25.936Z,100.00
2022-12-25T07:45:59.704Z,100.00
2022-12-25T07:48:27.858Z,100.00
2022-12-25T07:50:59.626Z,100.00
2022-12-25T07:53:26.527Z,100.00
2022-12-25T07:55:57.925Z,100.00
2022-12-25T07:58:24.462Z,100.00
2022-12-25T08:00:50.951Z,100.00
2022-12-25T08:03:18.201Z,100.00
2022-12-25T08:05:45.519Z,100.00
2022-12-25T08:08:11.959Z,100.00
2022-12-25T08:10:38.358Z,100.00
2022-12-25T08:13:10.855Z,100.00
2022-12-25T08:15:41.035Z,100.00
2022-12-25T08:18:07.940Z,100.00
2022-12-25T08:20:34.789Z,100.00
2022-12-25T08:23:01.246Z,100.00
2022-12-25T08:25:28.249Z,100.00
2022-12-25T08:27:54.641Z,100.00
2022-12-25T08:30:20.964Z,100.00
2022-12-25T08:32:47.796Z,100.00
2022-12-25T08:35:14.222Z,100.00
2022-12-25T08:37:40.565Z,99.79
2022-12-25T08:40:07.934Z,100.00
2022-12-25T08:42:34.540Z,100.00
2022-12-25T08:45:00.872Z,100.00
2022-12-25T08:47:27.195Z,100.00
2022-12-25T08:49:54.045Z,99.91
2022-12-25T08:52:20.591Z,100.00
2022-12-25T08:54:47.611Z,100.00
2022-12-25T08:57:13.955Z,99.96
2022-12-25T08:59:40.296Z,99.82
2022-12-25T09:02:07.250Z,98.98
2022-12-25T09:04:33.742Z,98.95
2022-12-25T09:07:00.087Z,99.20
2022-12-25T09:09:30.112Z,99.11
2022-12-25T09:11:56.462Z,99.19
2022-12-25T09:14:22.802Z,99.54
2022-12-25T09:16:52.323Z,99.24
2022-12-25T09:19:18.779Z,99.29
2022-12-25T09:21:45.247Z,98.84
2022-12-25T09:24:11.968Z,98.43
2022-12-25T09:26:38.333Z,97.86
2022-12-25T09:29:04.703Z,97.50
2022-12-25T09:31:31.593Z,97.20
2022-12-25T09:33:58.265Z,96.58
2022-12-25T09:36:25.503Z,97.06
2022-12-25T09:38:52.821Z,95.98
2022-12-25T09:41:38.862Z,95.78
2022-12-25T09:44:17.763Z,95.24
2022-12-25T09:46:50.630Z,95.01
2022-12-25T09:49:20.422Z,95.14
2022-12-25T09:51:53.479Z,95.53
2022-12-25T09:54:30.146Z,95.32
2022-12-25T09:56:57.233Z,95.33
2022-12-25T09:59:25.837Z,95.84
2022-12-25T10:02:25.708Z,95.39
2022-12-25T10:05:18.935Z,96.30
2022-12-25T10:07:50.335Z,96.53
2022-12-25T10:10:45.753Z,96.37
2022-12-25T10:13:48.017Z,96.19
2022-12-25T10:16:25.154Z,95.89
2022-12-25T10:19:03.524Z,95.74
2022-12-25T10:21:31.176Z,96.69
2022-12-25T10:24:27.650Z,96.87
2022-12-25T10:26:56.252Z,96.72
2022-12-25T10:29:22.688Z,97.01
2022-12-25T10:31:54.135Z,96.34
2022-12-25T10:34:21.268Z,97.43
2022-12-25T10:36:47.844Z,97.10
2022-12-25T10:39:23.996Z,97.26
2022-12-25T10:42:16.083Z,97.18
2022-12-25T10:45:01.501Z,96.86
2022-12-25T10:47:34.720Z,97.04
2022-12-25T10:50:28.877Z,97.17
2022-12-25T10:52:59.905Z,97.25
2022-12-25T10:55:29.190Z,96.74
2022-12-25T10:57:57.636Z,97.00
2022-12-25T11:00:27.677Z,96.87
2022-12-25T11:02:54.483Z,96.85
2022-12-25T11:05:35.332Z,96.43
2022-12-25T11:08:03.052Z,96.46
2022-12-25T11:10:36.990Z,96.40
2022-12-25T11:13:07.499Z,96.17
2022-12-25T11:15:40.864Z,95.95
2022-12-25T11:18:32.501Z,95.74
2022-12-25T11:21:16.078Z,95.89
2022-12-25T11:23:48.222Z,95.63
2022-12-25T11:26:16.352Z,95.16
2022-12-25T11:28:45.218Z,94.96
2022-12-25T11:31:37.894Z,95.15
2022-12-25T11:34:20.099Z,94.70
2022-12-25T11:36:50.010Z,94.81
2022-12-25T11:39:33.887Z,94.44
2022-12-25T11:42:20.916Z,94.06
2022-12-25T11:44:51.623Z,93.99
2022-12-25T11:47:35.616Z,93.77
2022-12-25T11:50:28.278Z,93.25
2022-12-25T11:52:56.334Z,93.25
2022-12-25T11:55:28.312Z,92.95
2022-12-25T11:58:02.227Z,92.75
2022-12-25T12:00:30.670Z,92.93
2022-12-25T12:03:06.841Z,92.70
2022-12-25T12:05:46.186Z,92.57
2022-12-25T12:08:14.172Z,92.39
2022-12-25T12:10:55.130Z,92.62
2022-12-25T12:13:31.299Z,92.27
2022-12-25T12:15:58.500Z,92.14
2022-12-25T12:18:28.184Z,92.12
2022-12-25T12:21:07.029Z,92.06
2022-12-25T12:23:47.476Z,91.70
2022-12-25T12:26:23.705Z,91.85
2022-12-25T12:28:53.851Z,91.62
2022-12-25T12:31:20.263Z,91.42
2022-12-25T12:33:52.736Z,91.23
2022-12-25T12:36:34.507Z,91.30
2022-12-25T12:39:01.957Z,90.94
2022-12-25T12:41:44.858Z,90.87
2022-12-25T12:44:12.842Z,90.97
2022-12-25T12:46:51.680Z,90.81
2022-12-25T12:49:25.682Z,90.53
2022-12-25T12:52:21.643Z,90.04
2022-12-25T12:55:14.347Z,89.14
2022-12-25T12:57:41.997Z,88.90
2022-12-25T13:00:17.281Z,88.95
2022-12-25T13:02:44.016Z,88.55
2022-12-25T13:05:40.620Z,88.78
2022-12-25T13:08:29.177Z,88.95
2022-12-25T13:11:14.091Z,88.91
2022-12-25T13:13:44.052Z,88.88
2022-12-25T13:16:21.716Z,88.50
2022-12-25T13:18:50.713Z,88.93
2022-12-25T13:21:22.740Z,89.02
2022-12-25T13:23:59.791Z,89.47
2022-12-25T13:26:27.001Z,89.56
2022-12-25T13:28:55.820Z,89.65
2022-12-25T13:31:28.337Z,89.55
2022-12-25T13:34:02.257Z,89.47
2022-12-25T13:36:31.033Z,89.50
2022-12-25T13:38:59.740Z,89.62
2022-12-25T13:42:03.155Z,89.65
2022-12-25T13:44:41.395Z,89.45
2022-12-25T13:47:20.097Z,89.57
2022-12-25T13:49:47.389Z,89.44
2022-12-25T13:52:17.747Z,89.51
2022-12-25T13:55:00.270Z,89.50
2022-12-25T13:57:39.618Z,89.99
2022-12-25T14:00:08.496Z,89.88
2022-12-25T14:02:37.507Z,90.18
2022-12-25T14:05:32.384Z,90.48
2022-12-25T14:08:13.711Z,90.58
2022-12-25T14:10:41.391Z,90.76
2022-12-25T14:13:12.655Z,90.82
2022-12-25T14:15:40.917Z,90.94
2022-12-25T14:18:14.080Z,90.65
2022-12-25T14:20:42.413Z,90.93
2022-12-25T14:23:16.242Z,90.79
2022-12-25T14:25:44.210Z,90.97
2022-12-25T14:28:32.450Z,91.04
2022-12-25T14:31:00.689Z,91.36
2022-12-25T14:33:31.086Z,91.58
2022-12-25T14:35:59.466Z,91.38
2022-12-25T14:38:35.087Z,91.36
2022-12-25T14:41:05.659Z,91.70
2022-12-25T14:43:32.923Z,92.26
2022-12-25T14:46:02.635Z,92.57
2022-12-25T14:48:33.251Z,92.15
2022-12-25T14:51:04.512Z,92.31
2022-12-25T14:53:48.038Z,92.75
2022-12-25T14:56:20.199Z,93.02
2022-12-25T14:58:54.082Z,93.21
2022-12-25T15:01:35.893Z,93.21
2022-12-25T15:04:10.413Z,93.23
2022-12-25T15:07:01.109Z,93.05
2022-12-25T15:09:30.219Z,93.59
2022-12-25T15:11:56.899Z,93.76
2022-12-25T15:14:24.780Z,94.30
2022-12-25T15:16:58.647Z,93.74
2022-12-25T15:19:37.423Z,94.21
2022-12-25T15:22:05.358Z,94.22
2022-12-25T15:24:32.169Z,94.81
2022-12-25T15:27:00.448Z,94.67
2022-12-25T15:32:23.039Z,94.02
2022-12-25T15:34:50.356Z,94.50
2022-12-25T15:37:18.769Z,93.98
2022-12-25T15:39:45.334Z,94.19
2022-12-25T15:42:21.907Z,94.40
2022-12-25T15:44:48.307Z,95.09
2022-12-25T15:47:16.818Z,94.62
2022-12-25T15:49:43.723Z,95.33
2022-12-25T15:52:13.609Z,94.83
2022-12-25T15:54:39.947Z,94.86
2022-12-25T15:57:12.444Z,95.04
2022-12-25T15:59:38.782Z,95.62
2022-12-25T16:02:15.443Z,95.46
2022-12-25T16:04:42.451Z,95.07
2022-12-25T16:07:21.988Z,95.08
2022-12-25T16:09:48.969Z,95.40
2022-12-25T16:12:15.837Z,95.25
2022-12-25T16:14:42.212Z,95.69
2022-12-25T16:17:12.153Z,95.30
2022-12-25T16:19:38.892Z,95.97
2022-12-25T16:22:20.137Z,95.58
2022-12-25T16:24:46.863Z,95.04
2022-12-25T16:27:13.191Z,95.34
2022-12-25T16:29:39.516Z,95.47
2022-12-25T16:32:06.235Z,96.22
2022-12-25T16:34:32.581Z,96.12
2022-12-25T16:36:58.919Z,95.81
2022-12-25T16:39:25.621Z,95.43
2022-12-25T16:41:52.025Z,95.75
2022-12-25T16:44:18.381Z,96.01
2022-12-25T16:46:45.154Z,95.78
2022-12-25T16:49:11.517Z,96.19
2022-12-25T16:51:37.872Z,95.85
2022-12-25T16:54:04.996Z,96.07
2022-12-25T16:56:32.265Z,96.24
2022-12-25T16:59:00.777Z,96.31
2022-12-25T17:01:27.698Z,96.48
2022-12-25T17:03:54.461Z,97.61
2022-12-25T17:06:23.545Z,97.33
2022-12-25T17:08:52.247Z,97.47
2022-12-25T17:11:23.388Z,98.06
2022-12-25T17:13:49.750Z,98.00
2022-12-25T17:16:19.375Z,98.49
2022-12-25T17:18:46.307Z,98.53
2022-12-25T17:21:14.455Z,98.19
2022-12-25T17:23:41.138Z,98.64
2022-12-25T17:26:07.512Z,98.69
2022-12-25T17:28:34.697Z,98.36
2022-12-25T17:31:10.692Z,98.44
2022-12-25T17:33:41.789Z,98.46
2022-12-25T17:36:11.415Z,98.43
2022-12-25T17:38:38.345Z,98.85
2022-12-25T17:41:07.331Z,98.85
2022-12-25T17:43:35.977Z,98.66
2022-12-25T17:46:12.703Z,99.00
2022-12-25T17:48:39.171Z,98.99
2022-12-25T17:51:08.324Z,99.04
2022-12-25T17:53:36.203Z,98.72
2022-12-25T17:56:02.623Z,98.67
2022-12-25T17:58:29.253Z,98.77
2022-12-25T18:00:56.459Z,99.26
2022-12-25T18:03:23.124Z,98.72
2022-12-25T18:05:49.604Z,99.13
2022-12-25T18:08:16.025Z,98.94
2022-12-25T18:10:43.659Z,99.62
2022-12-25T18:13:11.719Z,99.04
2022-12-25T18:15:40.180Z,99.60
2022-12-25T18:18:07.489Z,99.40
2022-12-25T18:20:39.931Z,98.63
2022-12-25T18:23:06.745Z,98.99
2022-12-25T18:25:34.060Z,98.81
2022-12-25T18:28:02.659Z,98.80
2022-12-25T18:30:29.361Z,99.30
2022-12-25T18:32:56.050Z,99.61
2022-12-25T18:35:22.814Z,98.76
2022-12-25T18:37:49.166Z,99.50
2022-12-25T18:40:16.105Z,99.08
2022-12-25T18:42:43.236Z,99.29
2022-12-25T18:45:12.857Z,99.49
2022-12-25T18:47:39.244Z,98.91
2022-12-25T18:50:06.887Z,98.92
2022-12-25T18:52:48.983Z,99.61
2022-12-25T18:55:18.064Z,99.66
2022-12-25T18:57:44.453Z,99.61
2022-12-25T19:00:11.024Z,99.38
2022-12-25T19:02:37.905Z,99.15
2022-12-25T19:05:05.563Z,99.75
2022-12-25T19:07:32.403Z,99.71
2022-12-25T19:09:59.322Z,100.00
2022-12-25T19:12:25.684Z,99.92
2022-12-25T19:14:52.738Z,100.00
2022-12-25T19:17:19.616Z,100.00
2022-12-25T19:19:46.159Z,100.00
2022-12-25T19:22:12.644Z,100.00
2022-12-25T19:24:39.493Z,99.71
2022-12-25T19:27:06.498Z,99.95
2022-12-25T19:29:32.926Z,99.94
2022-12-25T19:31:59.412Z,100.00
2022-12-25T19:34:25.994Z,100.00
2022-12-25T19:36:52.333Z,100.00
2022-12-25T19:39:18.908Z,99.75
2022-12-25T19:41:45.718Z,100.00
2022-12-25T19:44:12.121Z,100.00
2022-12-25T19:46:40.647Z,99.75
2022-12-25T19:49:11.483Z,99.59
2022-12-25T19:51:40.507Z,100.00
2022-12-25T19:54:07.806Z,99.93
2022-12-25T19:56:34.544Z,100.00
2022-12-25T19:59:01.112Z,100.00
2022-12-25T20:01:29.134Z,100.00
2022-12-25T20:03:56.916Z,100.00
2022-12-25T20:06:29.063Z,100.00
2022-12-25T20:09:02.142Z,99.73
2022-12-25T20:11:30.147Z,100.00
2022-12-25T20:13:57.213Z,100.00
2022-12-25T20:16:25.118Z,100.00
2022-12-25T20:18:52.405Z,100.00
2022-12-25T20:21:21.489Z,100.00
2022-12-25T20:23:50.038Z,99.99
2022-12-25T20:26:18.572Z,100.00
2022-12-25T20:28:45.512Z,100.00
2022-12-25T20:31:27.682Z,100.00
2022-12-25T20:33:59.185Z,100.00
2022-12-25T20:36:31.037Z,100.00
2022-12-25T20:39:01.640Z,100.00
2022-12-25T20:41:29.553Z,100.00
2022-12-25T20:43:56.682Z,100.00
2022-12-25T20:46:24.480Z,100.00
2022-12-25T20:48:52.073Z,100.00
2022-12-25T20:51:21.208Z,100.00
2022-12-25T20:53:47.953Z,100.00
2022-12-25T20:56:17.067Z,100.00
2022-12-25T20:58:43.769Z,100.00
2022-12-25T21:01:12.926Z,100.00
2022-12-25T21:03:40.471Z,100.00
2022-12-25T21:06:07.585Z,100.00
2022-12-25T21:08:34.322Z,100.00
2022-12-25T21:11:01.542Z,100.00
2022-12-25T21:13:35.865Z,100.00
2022-12-25T21:16:06.425Z,100.00
2022-12-25T21:18:33.455Z,100.00
2022-12-25T21:21:04.599Z,100.00
2022-12-25T21:23:31.731Z,100.00
2022-12-25T21:25:58.165Z,100.00
2022-12-25T21:28:27.315Z,100.00
2022-12-25T21:30:54.131Z,100.00
2022-12-25T21:33:39.199Z,100.00
2022-12-25T21:36:10.672Z,100.00
2022-12-25T21:38:38.084Z,100.00
2022-12-25T21:41:12.491Z,100.00
2022-12-25T21:43:40.109Z,100.00
2022-12-25T21:46:09.181Z,100.00
2022-12-25T21:48:37.737Z,100.00
2022-12-25T21:51:33.841Z,100.00
2022-12-25T21:54:01.393Z,100.00
2022-12-25T21:56:32.456Z,100.00
2022-12-25T21:59:00.883Z,100.00
2022-12-25T22:01:29.552Z,99.99
2022-12-25T22:03:57.116Z,100.00
2022-12-25T22:06:41.990Z,100.00
2022-12-25T22:09:09.024Z,100.00
2022-12-25T22:11:54.218Z,100.00
2022-12-25T22:14:52.904Z,100.00
2022-12-25T22:17:42.816Z,100.00
2022-12-25T22:20:15.085Z,100.00
2022-12-25T22:22:41.822Z,100.00
2022-12-25T22:25:09.757Z,100.00
2022-12-25T22:27:38.135Z,99.82
2022-12-25T22:30:12.028Z,100.00
2022-12-25T22:32:38.615Z,100.00
2022-12-25T22:35:06.086Z,100.00
2022-12-25T22:37:32.646Z,99.97
2022-12-25T22:40:01.739Z,99.96
2022-12-25T22:42:28.729Z,99.94
2022-12-25T22:44:55.208Z,99.62
2022-12-25T22:47:22.110Z,100.00
2022-12-25T22:49:49.330Z,99.78
2022-12-25T22:52:15.913Z,99.89
2022-12-25T22:54:42.550Z,99.44
2022-12-25T22:57:08.890Z,99.85
2022-12-25T22:59:35.345Z,99.23
2022-12-25T23:02:02.264Z,99.41
2022-12-25T23:04:29.041Z,99.82
2022-12-25T23:06:55.849Z,99.92
2022-12-25T23:09:27.868Z,99.80
2022-12-25T23:11:56.158Z,99.95
2022-12-25T23:14:41.946Z,99.26
2022-12-25T23:17:32.122Z,99.27
2022-12-25T23:20:19.253Z,99.41
2022-12-25T23:23:05.134Z,100.00
2022-12-25T23:25:50.831Z,99.65
2022-12-25T23:28:40.229Z,99.61
2022-12-25T23:31:07.424Z,99.23
2022-12-25T23:33:33.872Z,99.99
2022-12-25T23:36:00.200Z,99.07
2022-12-25T23:38:27.042Z,99.24
2022-12-25T23:40:53.384Z,99.95
2022-12-25T23:43:20.282Z,99.71
2022-12-25T23:45:46.609Z,100.00
2022-12-25T23:48:12.944Z,100.00
2022-12-25T23:50:39.683Z,99.36
2022-12-25T23:53:06.000Z,100.00
2022-12-25T23:55:33.635Z,99.84
2022-12-25T23:58:00.308Z,100.00
